Terminal Aerodrome Forecast
Issued by NWS

Home | Current Version | Previous Version | Text Only | Print | Product List | Glossary Off
Versions: 1 2 3 4 5 6 7 8 9 10 11 12 13 14 15

000
FTUS44 KTSA 231700
TAFBVO
TAF
KBVO 231720Z 2318/2418 16009G14KT P6SM SCT250
     FM240000 16005KT P6SM BKN120
     FM241500 18007KT P6SM BKN050=

USA.gov is the U.S. government's official web portal to all federal, state and local government web resources and services.